Time;durP1;ratioP1;P1;durP2;ratioP2;P2;SDS_P1;SDS_P2;PMS_P1;PMS_P2;Temp;Humidity;BMP_temperature;BMP_pressure;BME280_temperature;BME280_humidity;BME280_pressure;Samples;Min_cycle;Max_cycle;Signal;HPM_P1;HPM_P2
2021/03/02 00:00:23;;;;;;;3.17;1.85;;;;;;;5.08;61.76;99210.34;5070046;28;20602;-52
2021/03/02 00:02:48;;;;;;;3.03;1.45;;;;;;;5.38;61.78;99256.97;5060956;28;20032;-51
2021/03/02 00:05:15;;;;;;;4.63;1.60;;;;;;;5.41;61.33;99278.00;5087398;28;20036;-53
2021/03/02 00:07:41;;;;;;;3.78;1.95;;;;;;;5.00;61.52;99186.97;5068535;28;20400;-50
2021/03/02 00:10:09;;;;;;;4.07;1.60;;;;;;;5.42;61.17;99267.25;5073990;28;20119;-54
2021/03/02 00:12:36;;;;;;;2.60;1.70;;;;;;;5.39;61.78;99258.69;5070086;28;20048;-48
2021/03/02 00:15:04;;;;;;;3.45;1.60;;;;;;;5.37;61.44;99249.97;5075501;28;20112;-52
2021/03/02 00:17:37;;;;;;;3.42;1.60;;;;;;;5.30;62.20;99242.44;5073124;28;20070;-53
2021/03/02 00:20:08;;;;;;;3.58;1.70;;;;;;;5.35;61.44;99254.53;5083057;28;20044;-56
2021/03/02 00:23:04;;;;;;;3.22;1.63;;;;;;;5.49;61.63;99242.97;5069289;28;20032;-47
2021/03/02 00:25:33;;;;;;;4.43;1.80;;;;;;;5.32;62.18;99237.88;5072643;28;20040;-51
2021/03/02 00:28:05;;;;;;;3.58;1.90;;;;;;;5.38;62.04;99254.31;5071103;28;20060;-52
2021/03/02 00:30:32;;;;;;;2.25;1.40;;;;;;;4.98;61.62;99179.13;5073874;28;20484;-50
2021/03/02 00:32:59;;;;;;;2.03;1.35;;;;;;;5.39;61.55;99251.56;5069488;28;20060;-47
2021/03/02 00:35:25;;;;;;;3.13;1.50;;;;;;;5.38;61.67;99246.38;5075710;28;20050;-45
2021/03/02 00:37:50;;;;;;;3.80;1.80;;;;;;;5.37;61.67;99231.41;5078374;28;20029;-47
2021/03/02 00:40:17;;;;;;;2.63;1.40;;;;;;;5.38;61.70;99217.16;5073641;28;20419;-45
2021/03/02 00:42:42;;;;;;;1.67;1.30;;;;;;;5.36;61.75;99197.84;5070477;28;20024;-51
2021/03/02 00:45:09;;;;;;;2.95;1.60;;;;;;;5.38;61.84;99201.22;5073740;28;20050;-48
2021/03/02 00:47:35;;;;;;;3.10;1.60;;;;;;;5.41;61.89;99193.06;5057750;28;20048;-50
2021/03/02 00:50:01;;;;;;;3.88;1.52;;;;;;;5.30;61.65;99160.16;5075412;28;20044;-48
2021/03/02 00:52:27;;;;;;;2.22;1.50;;;;;;;5.34;61.99;99173.22;5069855;28;20032;-49
2021/03/02 00:54:52;;;;;;;4.63;1.60;;;;;;;5.40;61.33;99180.75;5071301;28;20027;-48
2021/03/02 00:57:17;;;;;;;4.78;1.80;;;;;;;4.89;61.71;99102.81;5071799;28;20043;-50
2021/03/02 00:59:43;;;;;;;4.40;1.90;;;;;;;5.32;61.66;99173.31;5068581;28;20614;-46
2021/03/02 01:02:12;;;;;;;4.03;1.52;;;;;;;5.40;61.77;99178.09;5063635;28;20078;-48
2021/03/02 01:04:37;;;;;;;4.20;1.52;;;;;;;5.35;61.35;99165.13;5075576;28;20110;-50
2021/03/02 01:07:04;;;;;;;2.78;1.70;;;;;;;5.30;61.75;99160.16;5072918;28;20036;-53
2021/03/02 01:09:29;;;;;;;3.47;1.42;;;;;;;5.32;61.81;99179.47;5064887;28;20033;-49
2021/03/02 01:11:55;;;;;;;2.75;1.50;;;;;;;5.26;61.26;99166.59;5067038;28;20033;-48
2021/03/02 01:14:20;;;;;;;3.65;1.70;;;;;;;5.38;61.59;99174.69;5070254;28;20024;-47
2021/03/02 01:16:46;;;;;;;2.35;1.48;;;;;;;5.39;61.59;99171.06;5072700;28;20043;-48
2021/03/02 01:19:12;;;;;;;2.30;1.42;;;;;;;5.25;61.84;99161.41;5077633;28;20141;-50
2021/03/02 01:21:37;;;;;;;2.00;1.40;;;;;;;5.29;61.70;99163.72;5080547;28;20086;-51
2021/03/02 01:24:03;;;;;;;2.60;1.58;;;;;;;5.27;61.29;99160.34;5065649;28;20029;-56
2021/03/02 01:26:29;;;;;;;2.85;1.70;;;;;;;5.33;61.93;99164.38;5064261;28;20036;-48
2021/03/02 01:28:54;;;;;;;3.83;1.50;;;;;;;5.24;61.89;99143.81;5076785;28;20480;-51
2021/03/02 01:31:20;;;;;;;2.85;1.27;;;;;;;5.34;61.58;99168.72;5069272;28;20043;-50
2021/03/02 01:33:45;;;;;;;2.08;1.30;;;;;;;5.33;61.76;99167.03;5067530;28;20116;-49
2021/03/02 01:36:11;;;;;;;2.55;1.20;;;;;;;5.25;61.83;99148.97;5072455;28;20037;-54
2021/03/02 01:38:36;;;;;;;2.97;1.33;;;;;;;5.35;61.69;99162.47;5075511;28;20052;-49
2021/03/02 01:41:02;;;;;;;3.03;1.40;;;;;;;5.38;61.52;99162.25;5074410;28;20484;-49
2021/03/02 01:43:27;;;;;;;4.60;1.50;;;;;;;5.30;61.50;99149.53;5066381;28;20035;-49
2021/03/02 01:45:53;;;;;;;3.95;1.40;;;;;;;5.40;61.59;99164.81;5070519;28;20032;-49
2021/03/02 01:48:18;;;;;;;5.57;1.75;;;;;;;5.32;61.03;99144.97;5061611;28;20514;-49
2021/03/02 01:50:44;;;;;;;4.05;1.40;;;;;;;5.24;61.33;99144.63;5074847;28;20047;-55
2021/03/02 01:53:09;;;;;;;2.55;1.40;;;;;;;5.37;61.42;99152.59;5068802;28;20442;-47
2021/03/02 01:55:35;;;;;;;4.10;1.48;;;;;;;5.40;61.15;99159.50;5074138;28;20048;-46
2021/03/02 01:58:00;;;;;;;5.55;1.52;;;;;;;5.37;61.46;99151.75;5073428;28;20481;-48
2021/03/02 02:00:30;;;;;;;5.07;1.55;;;;;;;4.93;60.90;99061.88;5073746;28;20075;-52
2021/03/02 02:02:59;;;;;;;2.70;1.08;;;;;;;5.42;61.43;99139.00;5062542;28;20460;-52
2021/03/02 02:05:27;;;;;;;3.05;1.40;;;;;;;5.01;60.95;99086.03;5061565;28;20063;-53
2021/03/02 02:08:00;;;;;;;3.92;1.30;;;;;;;5.32;61.54;99131.69;5072199;28;20193;-48
2021/03/02 02:10:51;;;;;;;2.90;1.23;;;;;;;5.44;61.47;99145.91;5072286;28;20033;-50
2021/03/02 02:13:33;;;;;;;3.38;1.33;;;;;;;5.43;61.19;99136.25;5061957;28;20051;-51
2021/03/02 02:16:04;;;;;;;2.35;1.38;;;;;;;5.43;61.22;99132.72;5072888;28;20047;-47
2021/03/02 02:18:33;;;;;;;4.00;1.75;;;;;;;5.46;61.07;99132.50;5070460;28;21041;-51
2021/03/02 02:21:05;;;;;;;4.35;1.30;;;;;;;5.44;61.06;99119.38;5085407;28;20048;-53
2021/03/02 02:24:10;;;;;;;3.83;1.42;;;;;;;5.44;61.89;99126.47;5069545;28;20044;-49
2021/03/02 02:26:56;;;;;;;4.13;1.77;;;;;;;5.38;61.07;99103.00;5059964;28;20064;-53
2021/03/02 02:29:27;;;;;;;2.92;1.30;;;;;;;5.12;61.23;99071.19;5066840;28;20040;-49
2021/03/02 02:31:53;;;;;;;4.55;1.65;;;;;;;5.23;61.28;99087.19;5068164;28;20038;-54
2021/03/02 02:34:21;;;;;;;3.78;1.40;;;;;;;5.38;60.98;99103.00;5070649;28;20078;-49
2021/03/02 02:36:52;;;;;;;5.60;1.77;;;;;;;5.39;61.44;99107.38;5074201;28;20450;-50
2021/03/02 02:39:19;;;;;;;2.28;1.30;;;;;;;5.36;61.27;99102.28;5068892;28;20032;-48
2021/03/02 02:41:47;;;;;;;5.22;1.42;;;;;;;5.40;60.97;99085.16;5076974;28;20044;-48
2021/03/02 02:44:14;;;;;;;4.63;1.55;;;;;;;5.36;61.02;99100.44;5070022;28;20036;-54
2021/03/02 02:46:40;;;;;;;4.18;1.30;;;;;;;5.35;60.97;99092.63;5070702;28;20491;-48
2021/03/02 02:49:10;;;;;;;3.88;1.30;;;;;;;5.43;61.23;99103.53;5075549;28;20040;-52
2021/03/02 02:51:37;;;;;;;5.45;1.30;;;;;;;5.41;61.31;99100.97;5071185;28;20569;-50
2021/03/02 02:54:04;;;;;;;2.70;1.50;;;;;;;5.35;61.25;99101.41;5070357;28;20044;-48
2021/03/02 02:56:32;;;;;;;3.13;1.27;;;;;;;5.35;62.11;99096.09;5074176;28;20067;-50
2021/03/02 02:59:05;;;;;;;3.92;1.45;;;;;;;5.38;61.45;99097.72;5069849;28;20043;-50
2021/03/02 03:01:38;;;;;;;3.35;1.40;;;;;;;5.34;61.63;99096.22;5066347;28;20078;-52
2021/03/02 03:04:08;;;;;;;2.47;1.38;;;;;;;5.31;61.42;99091.97;5082564;28;20044;-47
2021/03/02 03:06:37;;;;;;;3.83;1.45;;;;;;;5.25;61.89;99081.78;5073442;28;20093;-52
2021/03/02 03:09:05;;;;;;;1.98;1.23;;;;;;;5.31;62.03;99102.59;5076985;28;20081;-49
2021/03/02 03:11:38;;;;;;;3.67;1.58;;;;;;;5.38;62.30;99105.66;5071749;28;20408;-52
2021/03/02 03:14:06;;;;;;;2.63;1.17;;;;;;;5.35;62.09;99101.41;5071421;28;20119;-50
2021/03/02 03:16:34;;;;;;;5.32;1.40;;;;;;;5.41;61.70;99108.09;5074002;28;20032;-51
2021/03/02 03:19:01;;;;;;;3.17;1.38;;;;;;;5.38;61.73;99095.06;5074481;28;20039;-47
2021/03/02 03:21:27;;;;;;;3.30;1.45;;;;;;;5.21;62.36;99081.16;5079471;28;20040;-52
2021/03/02 03:23:55;;;;;;;3.67;1.67;;;;;;;5.39;62.21;99104.72;5071663;28;20415;-45
2021/03/02 03:26:26;;;;;;;2.85;1.55;;;;;;;4.84;62.89;99025.38;5072751;28;20880;-54
2021/03/02 03:28:53;;;;;;;2.70;1.70;;;;;;;5.20;62.66;99089.25;5058104;28;20439;-50
2021/03/02 03:31:19;;;;;;;4.60;1.70;;;;;;;5.34;62.05;99098.88;5076293;28;20102;-45
2021/03/02 03:33:45;;;;;;;4.78;1.90;;;;;;;5.03;62.40;99062.06;5071250;28;20710;-46
2021/03/02 03:36:12;;;;;;;2.95;1.33;;;;;;;5.17;62.46;99101.75;5073807;28;20024;-50
2021/03/02 03:38:38;;;;;;;3.88;1.65;;;;;;;5.15;62.82;99103.66;5075615;28;20045;-49
2021/03/02 03:41:05;;;;;;;4.07;1.45;;;;;;;5.16;62.92;99105.34;5086307;28;20055;-47
2021/03/02 03:43:31;;;;;;;4.38;1.85;;;;;;;5.08;62.41;99083.00;5068365;28;20044;-51
2021/03/02 03:45:56;;;;;;;3.22;1.70;;;;;;;5.20;62.67;99103.34;5071388;28;20035;-49
2021/03/02 03:48:23;;;;;;;2.95;1.40;;;;;;;4.96;62.70;99071.44;5059110;28;20041;-51
2021/03/02 03:50:50;;;;;;;4.70;1.63;;;;;;;5.17;62.66;99107.03;5073950;28;20039;-50
2021/03/02 03:53:17;;;;;;;3.90;1.70;;;;;;;5.19;62.77;99112.25;5063143;28;20033;-48
2021/03/02 03:55:45;;;;;;;4.95;1.70;;;;;;;5.21;62.65;99113.00;5063713;28;20097;-46
2021/03/02 03:58:16;;;;;;;2.75;1.45;;;;;;;5.14;63.28;99090.50;5062902;28;20041;-54
2021/03/02 04:00:43;;;;;;;6.20;1.77;;;;;;;5.23;62.60;99110.25;5066842;28;20131;-52
2021/03/02 04:03:09;;;;;;;3.65;1.60;;;;;;;5.14;63.21;99086.03;5073041;28;20048;-49
2021/03/02 04:05:36;;;;;;;3.60;1.75;;;;;;;5.27;62.86;99111.72;5067174;28;20043;-51
2021/03/02 04:08:02;;;;;;;3.90;1.85;;;;;;;5.30;62.67;99096.44;5059966;28;20484;-48
2021/03/02 04:10:29;;;;;;;3.72;1.90;;;;;;;5.12;62.57;99071.19;5087081;28;20115;-54
2021/03/02 04:12:55;;;;;;;3.83;1.83;;;;;;;5.31;62.35;99098.16;5071108;28;20122;-51
2021/03/02 04:15:21;;;;;;;6.28;2.45;;;;;;;5.28;62.43;99093.03;5071766;28;20028;-49
2021/03/02 04:17:57;;;;;;;3.78;1.98;;;;;;;5.35;62.96;99093.44;5060273;28;20036;-48
2021/03/02 04:20:22;;;;;;;6.32;2.20;;;;;;;5.17;62.73;99080.50;5073989;28;20032;-53
2021/03/02 04:22:48;;;;;;;4.50;1.60;;;;;;;5.16;62.79;99075.31;5075050;28;20046;-50
2021/03/02 04:25:14;;;;;;;3.45;1.90;;;;;;;5.21;62.27;99085.63;5082169;28;20218;-53
2021/03/02 04:27:40;;;;;;;3.55;1.90;;;;;;;5.14;62.54;99074.59;5068613;28;20134;-48
2021/03/02 04:30:07;;;;;;;4.35;1.88;;;;;;;5.29;62.57;99096.53;5084473;28;20499;-49
2021/03/02 04:32:34;;;;;;;4.50;2.03;;;;;;;5.25;62.48;99095.91;5066587;28;20415;-52
2021/03/02 04:34:59;;;;;;;7.13;1.98;;;;;;;5.30;62.42;99098.25;5082191;28;20119;-50
2021/03/02 04:37:25;;;;;;;6.05;1.90;;;;;;;5.30;61.95;99090.28;5072751;28;20186;-53
2021/03/02 04:39:51;;;;;;;6.93;2.17;;;;;;;5.29;62.66;99091.22;5083309;28;20036;-50
2021/03/02 04:42:16;;;;;;;4.50;2.10;;;;;;;5.28;62.46;99082.41;5068280;28;20086;-53
2021/03/02 04:44:42;;;;;;;3.70;2.00;;;;;;;5.31;61.67;99084.00;5081676;28;20422;-47
2021/03/02 04:47:07;;;;;;;5.18;2.00;;;;;;;5.37;61.61;99085.38;5069215;28;20400;-47
2021/03/02 04:49:33;;;;;;;7.35;2.08;;;;;;;5.40;62.11;99069.25;5061763;28;20156;-51
2021/03/02 04:51:58;;;;;;;5.05;2.10;;;;;;;5.32;61.57;99057.38;5066781;28;20385;-51
2021/03/02 04:54:25;;;;;;;4.80;2.15;;;;;;;5.45;61.49;99075.94;5062336;28;20030;-47
2021/03/02 04:56:51;;;;;;;10.18;2.33;;;;;;;5.57;61.37;99076.00;5064879;28;20028;-51
2021/03/02 04:59:17;;;;;;;5.75;1.83;;;;;;;5.44;61.10;99065.41;5061645;28;20472;-49
2021/03/02 05:01:42;;;;;;;4.93;1.85;;;;;;;5.52;60.94;99080.78;5068431;28;20037;-48
2021/03/02 05:04:08;;;;;;;4.53;2.08;;;;;;;5.42;61.01;99059.34;5066218;28;20048;-48
2021/03/02 05:06:33;;;;;;;4.07;2.28;;;;;;;5.55;61.01;99070.81;5066123;28;20041;-49
2021/03/02 05:08:59;;;;;;;7.38;2.35;;;;;;;5.56;60.72;99079.59;5075273;28;20032;-52
2021/03/02 05:11:24;;;;;;;7.47;2.30;;;;;;;5.59;60.93;99068.75;5066034;28;20609;-54
2021/03/02 05:13:49;;;;;;;6.40;2.00;;;;;;;5.59;60.77;99069.63;5078098;28;20036;-50
2021/03/02 05:16:15;;;;;;;3.95;1.70;;;;;;;5.67;60.60;99062.91;5065755;28;20044;-51
2021/03/02 05:18:41;;;;;;;3.90;1.73;;;;;;;5.39;60.52;99004.66;5064573;28;20039;-51
2021/03/02 05:21:08;;;;;;;6.38;1.98;;;;;;;5.85;60.25;99066.00;5063660;28;20036;-51
2021/03/02 05:23:33;;;;;;;4.05;1.92;;;;;;;5.52;60.33;98999.31;5071266;28;20048;-49
2021/03/02 05:25:59;;;;;;;5.68;2.20;;;;;;;5.60;59.83;98998.75;5084006;28;20054;-51
2021/03/02 05:28:24;;;;;;;3.65;1.65;;;;;;;6.01;59.46;99055.13;5066866;28;20043;-49
2021/03/02 05:30:50;;;;;;;5.38;2.13;;;;;;;6.02;59.58;99056.81;5067140;28;20043;-47
2021/03/02 05:33:15;;;;;;;9.13;2.55;;;;;;;6.11;59.10;99063.28;5073370;28;20110;-52
2021/03/02 05:35:41;;;;;;;6.35;1.85;;;;;;;6.15;58.78;99060.28;5081012;28;20028;-46
2021/03/02 05:38:06;;;;;;;4.22;2.03;;;;;;;6.14;58.33;99052.41;5068477;28;20048;-50
2021/03/02 05:40:32;;;;;;;3.00;1.77;;;;;;;6.21;58.59;99052.78;5073645;28;20036;-50
2021/03/02 05:43:01;;;;;;;8.35;3.33;;;;;;;6.26;58.56;99069.25;5067090;28;20131;-53
2021/03/02 05:45:27;;;;;;;4.72;2.15;;;;;;;6.30;57.96;99060.09;5073535;28;20094;-47
2021/03/02 05:47:53;;;;;;;4.72;1.70;;;;;;;6.34;57.65;99056.25;5061386;28;20060;-50
2021/03/02 05:50:19;;;;;;;2.50;1.25;;;;;;;6.32;57.19;99039.56;5079881;28;20124;-45
2021/03/02 05:52:44;;;;;;;3.22;1.20;;;;;;;6.09;57.29;99001.41;5070872;28;20035;-45
2021/03/02 05:55:11;;;;;;;3.05;1.73;;;;;;;6.06;57.34;98999.84;5066484;28;20127;-46
2021/03/02 05:57:38;;;;;;;2.33;1.30;;;;;;;6.55;56.98;99043.13;5078236;28;20092;-47
2021/03/02 06:00:05;;;;;;;3.22;1.50;;;;;;;6.69;56.22;99046.53;5062134;28;20420;-52
2021/03/02 06:02:31;;;;;;;3.92;1.70;;;;;;;6.88;55.81;99038.84;5062784;28;20041;-47
2021/03/02 06:04:57;;;;;;;3.20;1.40;;;;;;;7.20;54.98;99042.56;5058682;28;20040;-49
2021/03/02 06:07:22;;;;;;;5.45;1.52;;;;;;;7.32;53.82;99016.78;5058914;28;20043;-46
2021/03/02 06:09:49;;;;;;;3.75;1.58;;;;;;;7.51;53.63;99029.47;5079888;28;20063;-52
2021/03/02 06:12:14;;;;;;;3.42;1.33;;;;;;;7.20;52.93;98965.34;5065700;28;20111;-50
2021/03/02 06:14:40;;;;;;;4.18;1.73;;;;;;;7.72;52.62;99034.03;5064815;28;20146;-47
2021/03/02 06:17:06;;;;;;;4.07;1.60;;;;;;;7.75;52.45;99031.13;5074550;28;20035;-47
2021/03/02 06:19:42;;;;;;;4.45;1.30;;;;;;;7.78;51.94;99027.34;5061450;28;20945;-50
2021/03/02 06:22:28;;;;;;;4.20;1.40;;;;;;;7.73;52.26;99036.56;5069043;28;20139;-49
2021/03/02 06:24:53;;;;;;;2.78;1.52;;;;;;;7.66;52.31;99037.19;5069238;28;20042;-48
2021/03/02 06:27:19;;;;;;;4.43;1.75;;;;;;;7.63;52.33;99064.06;5060320;28;20119;-51
2021/03/02 06:30:10;;;;;;;5.22;1.92;;;;;;;7.63;52.45;99040.97;5076029;28;20047;-44
2021/03/02 06:32:40;;;;;;;3.35;1.42;;;;;;;7.61;52.34;99051.72;5068241;28;20068;-50
2021/03/02 06:35:09;;;;;;;4.18;1.58;;;;;;;7.61;52.02;99022.41;5083862;28;20130;-51
2021/03/02 06:37:45;;;;;;;3.80;1.40;;;;;;;7.76;50.71;99038.97;5076624;28;20036;-49
2021/03/02 06:40:13;;;;;;;3.15;1.20;;;;;;;7.66;50.98;99040.72;5076577;28;20037;-52
2021/03/02 06:42:42;;;;;;;3.78;1.23;;;;;;;7.60;51.22;99047.38;5061187;28;20112;-50
2021/03/02 06:45:10;;;;;;;4.97;1.35;;;;;;;7.55;51.42;99030.91;5058475;28;20044;-49
2021/03/02 06:47:40;;;;;;;2.40;1.20;;;;;;;7.73;50.93;99036.56;5061063;28;20036;-49
2021/03/02 06:50:12;;;;;;;2.40;1.30;;;;;;;7.77;51.00;99037.16;5080333;28;20028;-54
2021/03/02 06:52:42;;;;;;;3.13;1.00;;;;;;;7.70;50.64;99036.81;5075947;28;20044;-50
2021/03/02 06:55:17;;;;;;;2.35;1.30;;;;;;;7.63;50.83;99040.09;5070555;28;20043;-49
2021/03/02 06:57:49;;;;;;;4.05;1.30;;;;;;;7.47;51.12;99036.88;5082181;28;20042;-48
2021/03/02 07:00:29;;;;;;;6.18;1.60;;;;;;;7.52;50.76;99039.16;5060754;28;20126;-46
2021/03/02 07:02:58;;;;;;;3.67;1.38;;;;;;;7.52;50.69;99044.50;5065193;28;20050;-48
2021/03/02 07:05:23;;;;;;;2.63;1.20;;;;;;;7.50;51.10;99041.09;5063246;28;20408;-51
2021/03/02 07:07:56;;;;;;;2.33;1.45;;;;;;;7.52;50.86;99035.63;5071878;28;20043;-52
2021/03/02 07:10:25;;;;;;;3.83;1.17;;;;;;;7.58;50.61;99044.00;5060198;28;20025;-47
2021/03/02 07:12:55;;;;;;;3.20;1.27;;;;;;;7.58;50.66;99033.34;5057764;28;20068;-55
2021/03/02 07:15:23;;;;;;;2.90;1.10;;;;;;;7.67;50.19;99037.06;5059684;28;20041;-50
2021/03/02 07:17:52;;;;;;;4.38;1.40;;;;;;;7.81;50.07;99038.59;5056979;28;20462;-56
2021/03/02 07:20:23;;;;;;;3.10;1.60;;;;;;;8.03;49.57;99027.00;5058722;28;20044;-51
2021/03/02 07:22:51;;;;;;;2.33;1.30;;;;;;;8.14;49.25;99027.94;5076930;28;20039;-54
2021/03/02 07:25:37;;;;;;;1.85;1.17;;;;;;;7.90;48.33;98963.22;5055819;28;20123;-49
2021/03/02 07:28:05;;;;;;;6.25;1.40;;;;;;;8.23;48.31;99018.34;5063594;28;20028;-51
2021/03/02 07:30:31;;;;;;;3.60;1.20;;;;;;;8.12;48.56;98963.25;5068242;28;20028;-50
2021/03/02 07:32:57;;;;;;;4.03;1.17;;;;;;;8.11;48.35;98951.72;5073692;28;20040;-54
2021/03/02 07:35:25;;;;;;;3.28;1.38;;;;;;;8.58;48.20;99025.19;5067984;28;20170;-52
2021/03/02 07:37:50;;;;;;;4.95;1.65;;;;;;;8.54;47.62;99016.59;5057557;28;20090;-51
2021/03/02 07:40:19;;;;;;;2.75;1.17;;;;;;;8.32;47.79;99009.56;5061696;28;20033;-55
2021/03/02 07:42:45;;;;;;;4.55;1.40;;;;;;;8.31;47.98;99015.88;5076094;28;20139;-56
2021/03/02 07:45:15;;;;;;;2.63;1.20;;;;;;;8.17;48.46;99023.19;5070282;28;20039;-57
2021/03/02 07:47:47;;;;;;;2.35;1.20;;;;;;;8.04;48.60;99012.69;5065483;28;20040;-50
2021/03/02 07:50:23;;;;;;;3.85;1.50;;;;;;;7.89;48.73;99025.47;5061996;28;20041;-56
2021/03/02 07:53:08;;;;;;;3.17;1.30;;;;;;;7.77;49.12;99026.50;5061916;28;20044;-50
2021/03/02 07:55:34;;;;;;;5.95;1.35;;;;;;;7.82;48.94;99021.66;5059342;28;20045;-56
2021/03/02 07:58:20;;;;;;;6.05;1.55;;;;;;;7.50;48.40;98939.88;5058289;28;20037;-52
2021/03/02 08:00:50;;;;;;;2.90;1.20;;;;;;;7.93;48.25;99003.91;5041451;28;20059;-51
2021/03/02 08:03:25;;;;;;;1.85;1.20;;;;;;;7.98;47.84;99013.22;5060654;28;20097;-65
2021/03/02 08:05:59;;;;;;;6.25;1.50;;;;;;;7.86;47.75;99015.09;5063308;28;20029;-49
2021/03/02 08:08:24;;;;;;;5.35;1.45;;;;;;;7.76;48.56;99022.16;5065382;28;20124;-48
2021/03/02 08:10:50;;;;;;;1.98;1.27;;;;;;;7.79;48.75;99029.91;5062975;28;20474;-55
2021/03/02 08:13:40;;;;;;;3.13;1.15;;;;;;;7.88;48.17;99014.97;5059404;28;20045;-67
2021/03/02 08:16:08;;;;;;;2.38;1.30;;;;;;;7.92;48.06;99023.53;5049370;28;20041;-53
2021/03/02 08:18:44;;;;;;;3.15;1.48;;;;;;;7.90;47.80;98989.88;5056912;28;20521;-54
2021/03/02 08:21:20;;;;;;;2.88;1.38;;;;;;;8.13;47.61;99016.44;5063727;28;20119;-54
2021/03/02 08:23:48;;;;;;;5.20;1.58;;;;;;;8.02;47.42;98977.34;5079826;28;20032;-53
2021/03/02 08:26:21;;;;;;;4.13;1.40;;;;;;;8.29;47.10;99002.66;5068897;28;20098;-53
2021/03/02 08:29:05;;;;;;;4.95;1.58;;;;;;;8.21;47.33;98996.28;5066618;28;20396;-57
2021/03/02 08:31:41;;;;;;;3.92;1.55;;;;;;;8.25;47.26;98992.38;5067873;28;20091;-54
2021/03/02 08:34:08;;;;;;;2.38;1.13;;;;;;;8.39;46.80;98993.88;5060132;28;20824;-56
2021/03/02 08:36:35;;;;;;;2.72;1.17;;;;;;;8.46;46.56;98976.38;5065940;28;20041;-53
2021/03/02 08:39:16;;;;;;;3.00;1.10;;;;;;;8.81;45.88;99001.03;5061795;28;20029;-51
2021/03/02 08:41:44;;;;;;;3.47;1.40;;;;;;;8.96;45.65;99002.38;5066028;28;20100;-55
2021/03/02 08:44:16;;;;;;;3.80;1.52;;;;;;;8.99;45.33;98993.22;5064732;28;20044;-48
2021/03/02 08:46:42;;;;;;;4.65;1.30;;;;;;;8.94;45.49;98982.97;5061746;28;20150;-53
2021/03/02 08:49:11;;;;;;;3.60;1.25;;;;;;;9.08;45.64;98989.78;5056976;28;20090;-48
2021/03/02 08:51:39;;;;;;;3.50;1.05;;;;;;;9.28;45.16;98980.00;5074685;28;20077;-52
2021/03/02 08:54:06;;;;;;;2.85;1.13;;;;;;;9.54;44.26;98976.81;5067524;28;20098;-50
2021/03/02 08:56:32;;;;;;;2.25;1.05;;;;;;;9.85;43.78;98981.19;5063143;28;20067;-54
2021/03/02 08:59:04;;;;;;;3.25;1.17;;;;;;;10.13;42.56;98984.00;5079286;28;20024;-52
2021/03/02 09:01:35;;;;;;;2.70;1.30;;;;;;;10.29;42.55;98975.41;5068067;28;20514;-49
2021/03/02 09:04:18;;;;;;;3.22;1.40;;;;;;;10.28;41.80;98987.09;5062826;28;20037;-52
2021/03/02 09:06:49;;;;;;;2.05;0.98;;;;;;;10.11;41.84;98975.28;5077538;28;20031;-68
2021/03/02 09:09:17;;;;;;;4.20;1.27;;;;;;;10.08;42.64;98975.56;5057677;28;20047;-54
2021/03/02 09:11:51;;;;;;;4.57;1.20;;;;;;;10.08;41.60;98971.06;5061341;28;20064;-51
2021/03/02 09:14:22;;;;;;;3.63;1.52;;;;;;;9.89;41.71;98975.44;5059793;28;20112;-56
2021/03/02 09:16:50;;;;;;;3.17;1.23;;;;;;;9.75;42.14;98975.84;5048401;28;20436;-65
2021/03/02 09:19:20;;;;;;;3.25;1.20;;;;;;;9.75;42.37;98986.53;5056257;28;20438;-50
2021/03/02 09:22:13;;;;;;;2.08;1.02;;;;;;;9.74;42.20;98979.50;5059665;28;20032;-47
2021/03/02 09:24:39;;;;;;;3.13;1.40;;;;;;;9.84;42.16;98966.97;5062118;28;20048;-62
2021/03/02 09:27:17;;;;;;;2.22;1.08;;;;;;;9.75;41.87;98971.31;5063995;28;20043;-53
2021/03/02 09:29:47;;;;;;;3.22;1.10;;;;;;;9.69;41.93;98976.41;5066192;28;20035;-55
2021/03/02 09:32:32;;;;;;;3.70;1.15;;;;;;;9.65;41.94;98969.66;5059121;28;20059;-52
2021/03/02 09:35:10;;;;;;;4.45;1.13;;;;;;;9.68;41.31;98958.69;5065529;28;20545;-49
2021/03/02 09:37:37;;;;;;;3.83;1.05;;;;;;;9.81;40.82;98967.25;5056793;28;20039;-53
2021/03/02 09:40:14;;;;;;;2.95;1.10;;;;;;;10.14;40.15;98956.28;5064285;28;20037;-48
2021/03/02 09:42:42;;;;;;;3.55;1.52;;;;;;;10.47;39.99;98946.94;5070827;28;20042;-54
2021/03/02 09:45:14;;;;;;;5.15;1.23;;;;;;;10.60;38.62;98960.00;5052286;28;20037;-52
2021/03/02 09:47:41;;;;;;;3.42;0.90;;;;;;;10.84;38.81;98941.75;5056228;28;20461;-55
2021/03/02 09:50:10;;;;;;;6.65;1.48;;;;;;;10.90;38.37;98911.72;5062506;28;20035;-56
2021/03/02 09:52:42;;;;;;;3.33;1.10;;;;;;;11.09;37.77;98948.25;5061489;28;20031;-57
2021/03/02 09:55:09;;;;;;;2.25;1.17;;;;;;;11.09;37.99;98937.53;5059591;28;20098;-55
2021/03/02 09:58:16;;;;;;;1.63;0.90;;;;;;;11.18;37.96;98952.72;5061279;28;20037;-48
2021/03/02 10:00:59;;;;;;;6.82;4.45;;;;;;;11.40;37.55;98931.84;5064881;28;20500;-54
2021/03/02 10:03:27;;;;;;;3.33;1.67;;;;;;;11.46;37.13;98931.28;5063705;28;20052;-58
2021/03/02 10:05:52;;;;;;;3.47;1.50;;;;;;;11.28;37.38;98941.94;5066560;28;20043;-61
2021/03/02 10:08:23;;;;;;;2.10;0.90;;;;;;;11.04;37.08;98939.84;5058298;28;20040;-57
2021/03/02 10:10:49;;;;;;;3.10;1.08;;;;;;;10.81;37.41;98950.94;5063041;28;20509;-52
2021/03/02 10:13:25;;;;;;;3.50;1.25;;;;;;;10.71;37.30;98948.28;5065462;28;20174;-56
2021/03/02 10:16:14;;;;;;;3.90;0.90;;;;;;;10.46;36.34;98947.09;5069752;28;20375;-50
2021/03/02 10:18:47;;;;;;;2.63;0.95;;;;;;;10.13;35.79;98952.78;5075397;28;20036;-57
2021/03/02 10:21:12;;;;;;;3.05;1.02;;;;;;;9.79;37.63;98934.47;5064694;28;20064;-54
2021/03/02 10:23:43;;;;;;;3.65;1.38;;;;;;;9.63;36.40;98935.03;5067898;28;20516;-53
2021/03/02 10:26:10;;;;;;;2.85;1.00;;;;;;;9.55;37.28;98946.44;5059694;28;20140;-52
2021/03/02 10:28:36;;;;;;;4.55;1.05;;;;;;;9.33;36.79;98940.34;5061904;28;20032;-63
2021/03/02 10:31:02;;;;;;;3.20;1.27;;;;;;;9.39;36.59;98930.09;5071082;28;20039;-51
2021/03/02 10:33:27;;;;;;;3.25;0.82;;;;;;;9.48;37.18;98932.78;5061202;28;20032;-53
2021/03/02 10:35:53;;;;;;;2.72;1.30;;;;;;;9.70;37.05;98935.34;5062529;28;20089;-55
2021/03/02 10:38:19;;;;;;;5.50;1.38;;;;;;;9.94;37.09;98932.22;5060679;28;20045;-57
2021/03/02 10:40:45;;;;;;;4.00;1.30;;;;;;;9.69;37.28;98859.63;5068730;28;20036;-59
2021/03/02 10:43:10;;;;;;;3.33;1.10;;;;;;;10.03;36.70;98926.03;5066743;28;20489;-57
2021/03/02 10:45:36;;;;;;;3.58;0.90;;;;;;;9.98;37.06;98932.78;5065070;28;20120;-49
2021/03/02 10:48:02;;;;;;;2.22;0.98;;;;;;;9.93;36.65;98929.72;5067909;28;20406;-51
2021/03/02 10:50:28;;;;;;;2.88;0.90;;;;;;;9.98;36.74;98927.44;5072404;28;20467;-52
2021/03/02 10:52:55;;;;;;;3.35;1.10;;;;;;;10.27;36.57;98926.53;5066118;28;20128;-52
2021/03/02 10:55:21;;;;;;;2.85;1.10;;;;;;;10.34;36.17;98919.63;5072982;28;20475;-51
2021/03/02 10:57:46;;;;;;;3.85;0.93;;;;;;;10.34;36.63;98919.63;5068364;28;20086;-51
2021/03/02 11:00:13;;;;;;;3.00;1.27;;;;;;;10.31;36.87;98912.75;5046814;28;20772;-62
2021/03/02 11:02:39;;;;;;;2.53;0.95;;;;;;;10.31;36.58;98917.25;5038403;28;20052;-52
2021/03/02 11:05:06;;;;;;;4.93;1.20;;;;;;;10.24;36.75;98911.63;5066868;28;20027;-57
2021/03/02 11:07:34;;;;;;;1.85;0.73;;;;;;;10.05;36.63;98909.84;5069957;28;20069;-53
2021/03/02 11:09:59;;;;;;;2.88;1.10;;;;;;;10.22;36.89;98907.41;5072003;28;20127;-52
2021/03/02 11:12:25;;;;;;;3.30;1.02;;;;;;;10.52;36.80;98924.25;5066758;28;20489;-55
2021/03/02 11:14:50;;;;;;;1.83;0.90;;;;;;;10.77;36.46;98904.84;5080893;28;20602;-60
2021/03/02 11:17:16;;;;;;;3.83;1.10;;;;;;;10.87;36.03;98912.03;5072996;28;20086;-59
2021/03/02 11:19:41;;;;;;;3.35;1.17;;;;;;;10.56;36.21;98872.97;5069986;28;20033;-56
2021/03/02 11:22:06;;;;;;;2.38;0.90;;;;;;;10.62;36.71;98915.22;5068049;28;20036;-53
2021/03/02 11:24:32;;;;;;;4.35;1.10;;;;;;;10.49;36.87;98909.34;5063234;28;20163;-53
2021/03/02 11:26:57;;;;;;;3.88;1.00;;;;;;;10.35;36.94;98897.22;5074733;28;20032;-49
2021/03/02 11:29:23;;;;;;;2.65;0.85;;;;;;;10.53;36.88;98900.03;5067762;28;20047;-57
2021/03/02 11:31:48;;;;;;;3.20;1.05;;;;;;;10.41;36.63;98839.66;5082702;28;20451;-59
2021/03/02 11:34:14;;;;;;;2.30;0.80;;;;;;;11.00;36.29;98883.03;5072540;28;20037;-56
2021/03/02 11:36:39;;;;;;;4.10;1.30;;;;;;;11.16;36.00;98881.53;5080897;28;20031;-55
2021/03/02 11:39:05;;;;;;;3.25;0.90;;;;;;;11.23;35.78;98890.66;5067993;28;20065;-52
2021/03/02 11:41:31;;;;;;;3.45;1.00;;;;;;;11.29;36.01;98884.69;5061313;28;20323;-56
2021/03/02 11:43:56;;;;;;;3.60;0.95;;;;;;;11.32;35.59;98894.25;5071004;28;20047;-52
2021/03/02 11:46:22;;;;;;;1.95;0.98;;;;;;;11.40;35.44;98877.44;5069032;28;20048;-53
2021/03/02 11:48:47;;;;;;;3.53;1.20;;;;;;;11.52;35.17;98889.59;5063823;28;20076;-53